sensor_id;sensor_type;location;lat;lon;timestamp;P1;durP1;ratioP1;P2;durP2;ratioP2
72649;SDS011;61467;50.674;4.618;2024-02-14T00:00:42;7.85;;;2.70;;
72649;SDS011;61467;50.674;4.618;2024-02-14T00:03:09;6.25;;;2.25;;
72649;SDS011;61467;50.674;4.618;2024-02-14T00:05:37;7.80;;;2.53;;
72649;SDS011;61467;50.674;4.618;2024-02-14T00:08:06;7.47;;;2.40;;
72649;SDS011;61467;50.674;4.618;2024-02-14T00:10:34;6.78;;;2.47;;
72649;SDS011;61467;50.674;4.618;2024-02-14T00:13:01;5.85;;;2.40;;
72649;SDS011;61467;50.674;4.618;2024-02-14T00:15:32;6.82;;;2.47;;
72649;SDS011;61467;50.674;4.618;2024-02-14T00:17:59;6.00;;;2.10;;
72649;SDS011;61467;50.674;4.618;2024-02-14T00:20:25;7.17;;;2.40;;
72649;SDS011;61467;50.674;4.618;2024-02-14T00:22:52;6.40;;;2.35;;
72649;SDS011;61467;50.674;4.618;2024-02-14T00:25:20;6.70;;;2.80;;
72649;SDS011;61467;50.674;4.618;2024-02-14T00:27:48;6.28;;;2.42;;
72649;SDS011;61467;50.674;4.618;2024-02-14T00:30:15;6.15;;;2.05;;
72649;SDS011;61467;50.674;4.618;2024-02-14T00:32:42;7.83;;;2.30;;
72649;SDS011;61467;50.674;4.618;2024-02-14T00:35:09;6.93;;;2.60;;
72649;SDS011;61467;50.674;4.618;2024-02-14T00:37:36;7.20;;;2.80;;
72649;SDS011;61467;50.674;4.618;2024-02-14T00:40:03;6.90;;;2.40;;
72649;SDS011;61467;50.674;4.618;2024-02-14T00:42:31;7.10;;;2.92;;
72649;SDS011;61467;50.674;4.618;2024-02-14T00:45:00;6.80;;;2.70;;
72649;SDS011;61467;50.674;4.618;2024-02-14T00:47:28;6.78;;;2.55;;
72649;SDS011;61467;50.674;4.618;2024-02-14T00:49:54;6.00;;;2.20;;
72649;SDS011;61467;50.674;4.618;2024-02-14T00:52:21;7.00;;;2.47;;
72649;SDS011;61467;50.674;4.618;2024-02-14T00:54:48;6.68;;;2.47;;
72649;SDS011;61467;50.674;4.618;2024-02-14T00:57:15;6.90;;;2.83;;
72649;SDS011;61467;50.674;4.618;2024-02-14T00:59:43;8.55;;;2.95;;
72649;SDS011;61467;50.674;4.618;2024-02-14T01:02:11;7.88;;;2.83;;
72649;SDS011;61467;50.674;4.618;2024-02-14T01:04:38;7.25;;;2.70;;
72649;SDS011;61467;50.674;4.618;2024-02-14T01:07:04;6.82;;;2.78;;
72649;SDS011;61467;50.674;4.618;2024-02-14T01:09:31;8.13;;;2.80;;
72649;SDS011;61467;50.674;4.618;2024-02-14T01:11:58;6.53;;;2.95;;
72649;SDS011;61467;50.674;4.618;2024-02-14T01:14:25;9.23;;;2.88;;
72649;SDS011;61467;50.674;4.618;2024-02-14T01:16:52;7.03;;;2.88;;
72649;SDS011;61467;50.674;4.618;2024-02-14T01:19:22;7.40;;;2.97;;
72649;SDS011;61467;50.674;4.618;2024-02-14T01:21:53;7.87;;;3.23;;
72649;SDS011;61467;50.674;4.618;2024-02-14T01:24:21;5.82;;;2.33;;
72649;SDS011;61467;50.674;4.618;2024-02-14T01:26:48;6.82;;;2.53;;
72649;SDS011;61467;50.674;4.618;2024-02-14T01:29:15;8.32;;;2.58;;
72649;SDS011;61467;50.674;4.618;2024-02-14T01:31:42;6.90;;;3.05;;
72649;SDS011;61467;50.674;4.618;2024-02-14T01:34:09;6.30;;;2.80;;
72649;SDS011;61467;50.674;4.618;2024-02-14T01:36:37;6.63;;;2.70;;
72649;SDS011;61467;50.674;4.618;2024-02-14T01:39:06;7.82;;;3.00;;
72649;SDS011;61467;50.674;4.618;2024-02-14T01:41:36;9.27;;;3.28;;
72649;SDS011;61467;50.674;4.618;2024-02-14T01:44:03;7.55;;;3.25;;
72649;SDS011;61467;50.674;4.618;2024-02-14T01:46:30;6.30;;;2.77;;
72649;SDS011;61467;50.674;4.618;2024-02-14T01:48:57;9.82;;;3.22;;
72649;SDS011;61467;50.674;4.618;2024-02-14T01:51:23;7.15;;;3.33;;
72649;SDS011;61467;50.674;4.618;2024-02-14T01:53:52;7.72;;;3.40;;
72649;SDS011;61467;50.674;4.618;2024-02-14T01:56:21;9.93;;;3.65;;
72649;SDS011;61467;50.674;4.618;2024-02-14T01:58:48;9.33;;;3.80;;
72649;SDS011;61467;50.674;4.618;2024-02-14T02:01:15;8.70;;;3.30;;
72649;SDS011;61467;50.674;4.618;2024-02-14T02:03:43;7.85;;;3.58;;
72649;SDS011;61467;50.674;4.618;2024-02-14T02:06:09;7.95;;;3.03;;
72649;SDS011;61467;50.674;4.618;2024-02-14T02:08:36;9.27;;;3.70;;
72649;SDS011;61467;50.674;4.618;2024-02-14T02:11:04;8.37;;;3.23;;
72649;SDS011;61467;50.674;4.618;2024-02-14T02:13:31;8.88;;;3.65;;
72649;SDS011;61467;50.674;4.618;2024-02-14T02:15:58;8.63;;;3.15;;
72649;SDS011;61467;50.674;4.618;2024-02-14T02:18:26;7.85;;;3.72;;
72649;SDS011;61467;50.674;4.618;2024-02-14T02:20:53;9.00;;;3.50;;
72649;SDS011;61467;50.674;4.618;2024-02-14T02:23:21;7.27;;;3.37;;
72649;SDS011;61467;50.674;4.618;2024-02-14T02:25:48;7.35;;;3.25;;
72649;SDS011;61467;50.674;4.618;2024-02-14T02:28:15;7.63;;;3.20;;
72649;SDS011;61467;50.674;4.618;2024-02-14T02:30:42;8.43;;;2.85;;
72649;SDS011;61467;50.674;4.618;2024-02-14T02:33:11;9.73;;;3.65;;
72649;SDS011;61467;50.674;4.618;2024-02-14T02:35:41;7.33;;;3.53;;
72649;SDS011;61467;50.674;4.618;2024-02-14T02:38:10;7.95;;;3.70;;
72649;SDS011;61467;50.674;4.618;2024-02-14T02:40:38;8.80;;;3.40;;
72649;SDS011;61467;50.674;4.618;2024-02-14T02:43:05;9.27;;;3.80;;
72649;SDS011;61467;50.674;4.618;2024-02-14T02:45:32;6.88;;;3.40;;
72649;SDS011;61467;50.674;4.618;2024-02-14T02:47:59;10.63;;;3.60;;
72649;SDS011;61467;50.674;4.618;2024-02-14T02:50:27;8.80;;;3.75;;
72649;SDS011;61467;50.674;4.618;2024-02-14T02:52:55;8.07;;;4.00;;
72649;SDS011;61467;50.674;4.618;2024-02-14T02:55:22;7.10;;;3.25;;
72649;SDS011;61467;50.674;4.618;2024-02-14T02:57:50;10.38;;;3.60;;
72649;SDS011;61467;50.674;4.618;2024-02-14T03:00:18;9.20;;;3.60;;
72649;SDS011;61467;50.674;4.618;2024-02-14T03:02:46;9.07;;;4.10;;
72649;SDS011;61467;50.674;4.618;2024-02-14T03:05:14;8.45;;;4.05;;
72649;SDS011;61467;50.674;4.618;2024-02-14T03:07:43;7.55;;;3.45;;
72649;SDS011;61467;50.674;4.618;2024-02-14T03:10:13;9.25;;;4.05;;
72649;SDS011;61467;50.674;4.618;2024-02-14T03:12:44;9.63;;;3.63;;
72649;SDS011;61467;50.674;4.618;2024-02-14T03:15:13;8.73;;;4.25;;
72649;SDS011;61467;50.674;4.618;2024-02-14T03:17:40;8.80;;;3.40;;
72649;SDS011;61467;50.674;4.618;2024-02-14T03:20:08;8.52;;;3.83;;
72649;SDS011;61467;50.674;4.618;2024-02-14T03:22:37;7.20;;;3.10;;
72649;SDS011;61467;50.674;4.618;2024-02-14T03:25:07;8.93;;;4.17;;
72649;SDS011;61467;50.674;4.618;2024-02-14T03:27:34;9.82;;;3.90;;
72649;SDS011;61467;50.674;4.618;2024-02-14T03:30:02;9.88;;;4.00;;
72649;SDS011;61467;50.674;4.618;2024-02-14T03:32:31;8.07;;;3.75;;
72649;SDS011;61467;50.674;4.618;2024-02-14T03:34:58;8.23;;;3.78;;
72649;SDS011;61467;50.674;4.618;2024-02-14T03:37:25;9.50;;;4.30;;
72649;SDS011;61467;50.674;4.618;2024-02-14T03:39:52;8.27;;;3.53;;
72649;SDS011;61467;50.674;4.618;2024-02-14T03:42:19;9.52;;;4.30;;
72649;SDS011;61467;50.674;4.618;2024-02-14T03:44:46;10.85;;;4.22;;
72649;SDS011;61467;50.674;4.618;2024-02-14T03:47:13;9.00;;;4.15;;
72649;SDS011;61467;50.674;4.618;2024-02-14T03:49:41;9.10;;;4.27;;
72649;SDS011;61467;50.674;4.618;2024-02-14T03:52:09;9.88;;;3.75;;
72649;SDS011;61467;50.674;4.618;2024-02-14T03:54:36;9.25;;;3.95;;
72649;SDS011;61467;50.674;4.618;2024-02-14T03:57:03;12.70;;;3.88;;
72649;SDS011;61467;50.674;4.618;2024-02-14T03:59:35;9.68;;;4.45;;
72649;SDS011;61467;50.674;4.618;2024-02-14T04:02:05;7.97;;;3.80;;
72649;SDS011;61467;50.674;4.618;2024-02-14T04:04:34;8.95;;;3.92;;
72649;SDS011;61467;50.674;4.618;2024-02-14T04:07:03;8.63;;;3.58;;
72649;SDS011;61467;50.674;4.618;2024-02-14T04:09:32;9.10;;;3.92;;
72649;SDS011;61467;50.674;4.618;2024-02-14T04:11:59;8.80;;;3.97;;
72649;SDS011;61467;50.674;4.618;2024-02-14T04:14:25;8.93;;;4.27;;
72649;SDS011;61467;50.674;4.618;2024-02-14T04:16:52;8.25;;;3.72;;
72649;SDS011;61467;50.674;4.618;2024-02-14T04:19:19;8.32;;;4.13;;
72649;SDS011;61467;50.674;4.618;2024-02-14T04:21:46;9.05;;;4.57;;
72649;SDS011;61467;50.674;4.618;2024-02-14T04:24:15;10.27;;;4.30;;
72649;SDS011;61467;50.674;4.618;2024-02-14T04:26:42;8.87;;;4.00;;
72649;SDS011;61467;50.674;4.618;2024-02-14T04:29:09;8.57;;;4.38;;
72649;SDS011;61467;50.674;4.618;2024-02-14T04:31:35;11.50;;;4.70;;
72649;SDS011;61467;50.674;4.618;2024-02-14T04:34:02;9.85;;;4.20;;
72649;SDS011;61467;50.674;4.618;2024-02-14T04:36:30;9.68;;;4.32;;
72649;SDS011;61467;50.674;4.618;2024-02-14T04:38:57;9.03;;;4.70;;
72649;SDS011;61467;50.674;4.618;2024-02-14T04:41:25;9.60;;;4.95;;
72649;SDS011;61467;50.674;4.618;2024-02-14T04:43:52;10.23;;;5.30;;
72649;SDS011;61467;50.674;4.618;2024-02-14T04:46:18;12.45;;;5.32;;
72649;SDS011;61467;50.674;4.618;2024-02-14T04:48:47;10.75;;;5.50;;
72649;SDS011;61467;50.674;4.618;2024-02-14T04:51:14;12.87;;;5.43;;
72649;SDS011;61467;50.674;4.618;2024-02-14T04:53:41;10.88;;;5.35;;
72649;SDS011;61467;50.674;4.618;2024-02-14T04:56:08;10.10;;;5.68;;
72649;SDS011;61467;50.674;4.618;2024-02-14T04:58:36;10.13;;;5.30;;
72649;SDS011;61467;50.674;4.618;2024-02-14T05:01:03;11.68;;;5.57;;
72649;SDS011;61467;50.674;4.618;2024-02-14T05:03:32;12.10;;;5.90;;
72649;SDS011;61467;50.674;4.618;2024-02-14T05:05:59;13.35;;;5.80;;
72649;SDS011;61467;50.674;4.618;2024-02-14T05:08:27;12.35;;;5.50;;
72649;SDS011;61467;50.674;4.618;2024-02-14T05:10:54;10.27;;;5.45;;
72649;SDS011;61467;50.674;4.618;2024-02-14T05:13:22;9.95;;;5.50;;
72649;SDS011;61467;50.674;4.618;2024-02-14T05:15:51;9.73;;;5.00;;
72649;SDS011;61467;50.674;4.618;2024-02-14T05:18:19;11.02;;;5.57;;
72649;SDS011;61467;50.674;4.618;2024-02-14T05:20:46;9.63;;;4.82;;
72649;SDS011;61467;50.674;4.618;2024-02-14T05:23:13;9.75;;;5.10;;
72649;SDS011;61467;50.674;4.618;2024-02-14T05:25:42;10.50;;;5.22;;
72649;SDS011;61467;50.674;4.618;2024-02-14T05:28:10;11.47;;;5.60;;
72649;SDS011;61467;50.674;4.618;2024-02-14T05:30:38;12.07;;;5.45;;
72649;SDS011;61467;50.674;4.618;2024-02-14T05:33:07;11.20;;;5.75;;
72649;SDS011;61467;50.674;4.618;2024-02-14T05:35:33;10.95;;;5.90;;
72649;SDS011;61467;50.674;4.618;2024-02-14T05:38:00;11.70;;;5.28;;
72649;SDS011;61467;50.674;4.618;2024-02-14T05:40:29;9.90;;;5.17;;
72649;SDS011;61467;50.674;4.618;2024-02-14T05:42:56;10.73;;;5.50;;
72649;SDS011;61467;50.674;4.618;2024-02-14T05:45:24;10.85;;;5.90;;
72649;SDS011;61467;50.674;4.618;2024-02-14T05:47:52;14.07;;;6.03;;
72649;SDS011;61467;50.674;4.618;2024-02-14T05:50:20;10.27;;;5.30;;
72649;SDS011;61467;50.674;4.618;2024-02-14T05:52:47;12.73;;;5.67;;
72649;SDS011;61467;50.674;4.618;2024-02-14T05:55:14;11.13;;;4.95;;
72649;SDS011;61467;50.674;4.618;2024-02-14T05:57:40;15.10;;;5.68;;
72649;SDS011;61467;50.674;4.618;2024-02-14T06:00:07;11.95;;;5.13;;
72649;SDS011;61467;50.674;4.618;2024-02-14T06:02:35;11.82;;;5.60;;
72649;SDS011;61467;50.674;4.618;2024-02-14T06:05:02;11.30;;;5.00;;
72649;SDS011;61467;50.674;4.618;2024-02-14T06:07:36;11.13;;;5.45;;
72649;SDS011;61467;50.674;4.618;2024-02-14T06:10:02;11.88;;;5.57;;
72649;SDS011;61467;50.674;4.618;2024-02-14T06:12:29;13.07;;;6.50;;
72649;SDS011;61467;50.674;4.618;2024-02-14T06:14:56;12.10;;;5.85;;
72649;SDS011;61467;50.674;4.618;2024-02-14T06:17:23;12.70;;;5.83;;
72649;SDS011;61467;50.674;4.618;2024-02-14T06:19:52;13.07;;;5.47;;
72649;SDS011;61467;50.674;4.618;2024-02-14T06:22:19;14.25;;;5.63;;
72649;SDS011;61467;50.674;4.618;2024-02-14T06:24:48;14.68;;;5.65;;
72649;SDS011;61467;50.674;4.618;2024-02-14T06:27:16;12.10;;;5.65;;
72649;SDS011;61467;50.674;4.618;2024-02-14T06:29:43;15.67;;;5.90;;
72649;SDS011;61467;50.674;4.618;2024-02-14T06:32:12;14.23;;;5.85;;
72649;SDS011;61467;50.674;4.618;2024-02-14T06:34:42;14.73;;;5.70;;
72649;SDS011;61467;50.674;4.618;2024-02-14T06:37:08;11.55;;;5.97;;
72649;SDS011;61467;50.674;4.618;2024-02-14T06:39:35;11.10;;;5.22;;
72649;SDS011;61467;50.674;4.618;2024-02-14T06:42:04;10.67;;;5.23;;
72649;SDS011;61467;50.674;4.618;2024-02-14T06:44:31;10.40;;;5.15;;
72649;SDS011;61467;50.674;4.618;2024-02-14T06:46:57;12.73;;;5.68;;
72649;SDS011;61467;50.674;4.618;2024-02-14T06:49:24;13.25;;;5.45;;
72649;SDS011;61467;50.674;4.618;2024-02-14T06:51:52;11.60;;;5.30;;
72649;SDS011;61467;50.674;4.618;2024-02-14T06:54:19;13.87;;;5.27;;
72649;SDS011;61467;50.674;4.618;2024-02-14T06:56:46;11.80;;;4.68;;
72649;SDS011;61467;50.674;4.618;2024-02-14T06:59:15;12.55;;;4.88;;
72649;SDS011;61467;50.674;4.618;2024-02-14T07:01:42;11.27;;;5.03;;
72649;SDS011;61467;50.674;4.618;2024-02-14T07:04:08;9.77;;;5.05;;
72649;SDS011;61467;50.674;4.618;2024-02-14T07:06:35;10.60;;;5.57;;
72649;SDS011;61467;50.674;4.618;2024-02-14T07:09:02;12.52;;;5.90;;
72649;SDS011;61467;50.674;4.618;2024-02-14T07:11:30;10.95;;;5.53;;
72649;SDS011;61467;50.674;4.618;2024-02-14T07:13:57;11.73;;;5.65;;
72649;SDS011;61467;50.674;4.618;2024-02-14T07:16:26;13.27;;;5.68;;
72649;SDS011;61467;50.674;4.618;2024-02-14T07:18:52;13.33;;;5.83;;
72649;SDS011;61467;50.674;4.618;2024-02-14T07:21:20;16.45;;;6.65;;
72649;SDS011;61467;50.674;4.618;2024-02-14T07:23:48;12.40;;;5.82;;
72649;SDS011;61467;50.674;4.618;2024-02-14T07:26:15;13.57;;;5.47;;
72649;SDS011;61467;50.674;4.618;2024-02-14T07:28:42;12.65;;;6.22;;
72649;SDS011;61467;50.674;4.618;2024-02-14T07:31:09;13.03;;;5.70;;
72649;SDS011;61467;50.674;4.618;2024-02-14T07:33:37;11.80;;;5.85;;
72649;SDS011;61467;50.674;4.618;2024-02-14T07:36:04;12.48;;;6.28;;
72649;SDS011;61467;50.674;4.618;2024-02-14T07:38:34;13.13;;;6.22;;
72649;SDS011;61467;50.674;4.618;2024-02-14T07:41:01;12.40;;;5.72;;
72649;SDS011;61467;50.674;4.618;2024-02-14T07:43:27;14.30;;;6.43;;
72649;SDS011;61467;50.674;4.618;2024-02-14T07:45:54;15.82;;;6.63;;
72649;SDS011;61467;50.674;4.618;2024-02-14T07:48:21;15.63;;;6.45;;
72649;SDS011;61467;50.674;4.618;2024-02-14T07:50:49;15.82;;;6.32;;
72649;SDS011;61467;50.674;4.618;2024-02-14T07:53:16;13.90;;;6.55;;
72649;SDS011;61467;50.674;4.618;2024-02-14T07:55:43;17.03;;;6.50;;
72649;SDS011;61467;50.674;4.618;2024-02-14T07:58:10;14.40;;;6.15;;
72649;SDS011;61467;50.674;4.618;2024-02-14T08:00:37;13.90;;;6.80;;
72649;SDS011;61467;50.674;4.618;2024-02-14T08:03:04;14.50;;;6.80;;
72649;SDS011;61467;50.674;4.618;2024-02-14T08:05:31;16.13;;;7.32;;
72649;SDS011;61467;50.674;4.618;2024-02-14T08:08:00;14.03;;;6.50;;
72649;SDS011;61467;50.674;4.618;2024-02-14T08:10:27;15.10;;;6.95;;
72649;SDS011;61467;50.674;4.618;2024-02-14T08:12:53;14.85;;;6.63;;
72649;SDS011;61467;50.674;4.618;2024-02-14T08:15:20;14.98;;;6.38;;
72649;SDS011;61467;50.674;4.618;2024-02-14T08:17:47;15.50;;;6.70;;
72649;SDS011;61467;50.674;4.618;2024-02-14T08:20:14;15.93;;;6.60;;
72649;SDS011;61467;50.674;4.618;2024-02-14T08:22:40;15.80;;;7.05;;
72649;SDS011;61467;50.674;4.618;2024-02-14T08:25:09;16.10;;;7.05;;
72649;SDS011;61467;50.674;4.618;2024-02-14T08:27:37;14.52;;;6.22;;
72649;SDS011;61467;50.674;4.618;2024-02-14T08:30:04;13.55;;;6.40;;
72649;SDS011;61467;50.674;4.618;2024-02-14T08:32:33;14.07;;;5.97;;
72649;SDS011;61467;50.674;4.618;2024-02-14T08:35:01;15.38;;;6.07;;
72649;SDS011;61467;50.674;4.618;2024-02-14T08:37:28;16.55;;;7.45;;
72649;SDS011;61467;50.674;4.618;2024-02-14T08:39:56;11.60;;;5.75;;
72649;SDS011;61467;50.674;4.618;2024-02-14T08:42:24;13.82;;;6.32;;
72649;SDS011;61467;50.674;4.618;2024-02-14T08:44:51;11.30;;;6.20;;
72649;SDS011;61467;50.674;4.618;2024-02-14T08:47:19;15.13;;;6.38;;
72649;SDS011;61467;50.674;4.618;2024-02-14T08:49:46;12.90;;;5.72;;
72649;SDS011;61467;50.674;4.618;2024-02-14T08:52:12;13.15;;;6.45;;
72649;SDS011;61467;50.674;4.618;2024-02-14T08:54:39;13.65;;;6.03;;
72649;SDS011;61467;50.674;4.618;2024-02-14T08:57:06;12.37;;;6.30;;
72649;SDS011;61467;50.674;4.618;2024-02-14T08:59:35;11.55;;;5.93;;
72649;SDS011;61467;50.674;4.618;2024-02-14T09:02:01;13.30;;;6.40;;
72649;SDS011;61467;50.674;4.618;2024-02-14T09:04:28;12.15;;;6.43;;
72649;SDS011;61467;50.674;4.618;2024-02-14T09:06:56;13.18;;;6.32;;
72649;SDS011;61467;50.674;4.618;2024-02-14T09:09:23;12.83;;;6.30;;
72649;SDS011;61467;50.674;4.618;2024-02-14T09:11:50;15.25;;;7.20;;
72649;SDS011;61467;50.674;4.618;2024-02-14T09:14:17;15.00;;;7.70;;
72649;SDS011;61467;50.674;4.618;2024-02-14T09:16:45;15.10;;;6.47;;
72649;SDS011;61467;50.674;4.618;2024-02-14T09:19:12;14.52;;;5.68;;
72649;SDS011;61467;50.674;4.618;2024-02-14T09:21:39;11.80;;;6.57;;
72649;SDS011;61467;50.674;4.618;2024-02-14T09:24:06;11.73;;;6.82;;
72649;SDS011;61467;50.674;4.618;2024-02-14T09:26:33;14.85;;;6.32;;
72649;SDS011;61467;50.674;4.618;2024-02-14T09:29:01;12.10;;;6.57;;
72649;SDS011;61467;50.674;4.618;2024-02-14T09:31:28;12.27;;;6.53;;
72649;SDS011;61467;50.674;4.618;2024-02-14T09:33:56;11.10;;;5.80;;
72649;SDS011;61467;50.674;4.618;2024-02-14T09:36:26;12.38;;;6.43;;
72649;SDS011;61467;50.674;4.618;2024-02-14T09:38:54;12.57;;;6.03;;
72649;SDS011;61467;50.674;4.618;2024-02-14T09:41:22;13.48;;;6.13;;
72649;SDS011;61467;50.674;4.618;2024-02-14T09:43:52;11.07;;;5.68;;
72649;SDS011;61467;50.674;4.618;2024-02-14T09:46:19;12.10;;;5.63;;
72649;SDS011;61467;50.674;4.618;2024-02-14T09:48:52;11.43;;;5.38;;
72649;SDS011;61467;50.674;4.618;2024-02-14T09:51:22;10.85;;;5.68;;
72649;SDS011;61467;50.674;4.618;2024-02-14T09:53:51;12.35;;;5.40;;
72649;SDS011;61467;50.674;4.618;2024-02-14T09:56:21;10.48;;;5.03;;
72649;SDS011;61467;50.674;4.618;2024-02-14T09:58:49;9.23;;;4.10;;
72649;SDS011;61467;50.674;4.618;2024-02-14T10:01:21;10.27;;;3.80;;
72649;SDS011;61467;50.674;4.618;2024-02-14T10:03:49;10.82;;;4.18;;
72649;SDS011;61467;50.674;4.618;2024-02-14T10:06:17;8.45;;;4.20;;
72649;SDS011;61467;50.674;4.618;2024-02-14T10:08:49;9.38;;;4.82;;
72649;SDS011;61467;50.674;4.618;2024-02-14T10:11:16;9.43;;;3.97;;
72649;SDS011;61467;50.674;4.618;2024-02-14T10:13:46;8.07;;;4.45;;
72649;SDS011;61467;50.674;4.618;2024-02-14T10:16:15;9.85;;;4.32;;
72649;SDS011;61467;50.674;4.618;2024-02-14T10:18:43;7.68;;;3.75;;
72649;SDS011;61467;50.674;4.618;2024-02-14T10:21:14;10.75;;;4.55;;
72649;SDS011;61467;50.674;4.618;2024-02-14T10:23:42;11.07;;;4.63;;
72649;SDS011;61467;50.674;4.618;2024-02-14T10:26:11;10.00;;;4.03;;
72649;SDS011;61467;50.674;4.618;2024-02-14T10:28:40;10.07;;;4.90;;
72649;SDS011;61467;50.674;4.618;2024-02-14T10:31:09;11.93;;;5.15;;
72649;SDS011;61467;50.674;4.618;2024-02-14T10:33:36;9.43;;;4.57;;
72649;SDS011;61467;50.674;4.618;2024-02-14T10:36:03;9.30;;;3.90;;
72649;SDS011;61467;50.674;4.618;2024-02-14T10:38:34;9.23;;;4.13;;
72649;SDS011;61467;50.674;4.618;2024-02-14T10:41:01;9.77;;;4.80;;
72649;SDS011;61467;50.674;4.618;2024-02-14T10:43:30;8.23;;;3.45;;
72649;SDS011;61467;50.674;4.618;2024-02-14T10:45:58;8.20;;;3.25;;
72649;SDS011;61467;50.674;4.618;2024-02-14T10:48:31;8.37;;;3.00;;
72649;SDS011;61467;50.674;4.618;2024-02-14T10:51:01;8.07;;;3.60;;
72649;SDS011;61467;50.674;4.618;2024-02-14T10:53:31;7.72;;;2.95;;
72649;SDS011;61467;50.674;4.618;2024-02-14T10:56:00;7.07;;;2.90;;
72649;SDS011;61467;50.674;4.618;2024-02-14T10:58:28;6.90;;;2.85;;
72649;SDS011;61467;50.674;4.618;2024-02-14T11:00:57;8.77;;;2.90;;
72649;SDS011;61467;50.674;4.618;2024-02-14T11:03:25;7.18;;;3.00;;
72649;SDS011;61467;50.674;4.618;2024-02-14T11:05:54;7.13;;;2.90;;
72649;SDS011;61467;50.674;4.618;2024-02-14T11:08:28;7.38;;;2.72;;
72649;SDS011;61467;50.674;4.618;2024-02-14T11:10:58;5.80;;;2.42;;
72649;SDS011;61467;50.674;4.618;2024-02-14T11:13:26;6.07;;;2.57;;
72649;SDS011;61467;50.674;4.618;2024-02-14T11:15:59;6.40;;;2.53;;
72649;SDS011;61467;50.674;4.618;2024-02-14T11:18:27;7.32;;;2.28;;
72649;SDS011;61467;50.674;4.618;2024-02-14T11:20:56;5.82;;;2.17;;
72649;SDS011;61467;50.674;4.618;2024-02-14T11:23:23;6.97;;;2.55;;
72649;SDS011;61467;50.674;4.618;2024-02-14T11:25:59;5.77;;;2.10;;
72649;SDS011;61467;50.674;4.618;2024-02-14T11:28:26;5.80;;;2.00;;
72649;SDS011;61467;50.674;4.618;2024-02-14T11:30:59;7.80;;;2.10;;
72649;SDS011;61467;50.674;4.618;2024-02-14T11:33:28;6.65;;;2.53;;
72649;SDS011;61467;50.674;4.618;2024-02-14T11:35:56;5.90;;;2.10;;
72649;SDS011;61467;50.674;4.618;2024-02-14T11:38:24;5.27;;;1.93;;
72649;SDS011;61467;50.674;4.618;2024-02-14T11:40:53;5.78;;;1.92;;
72649;SDS011;61467;50.674;4.618;2024-02-14T11:43:21;7.05;;;2.22;;
72649;SDS011;61467;50.674;4.618;2024-02-14T11:45:50;5.10;;;1.67;;
72649;SDS011;61467;50.674;4.618;2024-02-14T11:48:19;4.97;;;1.83;;
72649;SDS011;61467;50.674;4.618;2024-02-14T11:50:48;4.83;;;1.60;;
72649;SDS011;61467;50.674;4.618;2024-02-14T11:53:17;5.20;;;1.77;;
72649;SDS011;61467;50.674;4.618;2024-02-14T11:55:44;6.45;;;2.30;;
72649;SDS011;61467;50.674;4.618;2024-02-14T11:58:12;5.80;;;2.22;;
72649;SDS011;61467;50.674;4.618;2024-02-14T12:00:41;5.55;;;2.35;;
72649;SDS011;61467;50.674;4.618;2024-02-14T12:03:15;6.60;;;2.27;;
72649;SDS011;61467;50.674;4.618;2024-02-14T12:05:45;6.28;;;2.20;;
72649;SDS011;61467;50.674;4.618;2024-02-14T12:08:13;5.60;;;1.90;;
72649;SDS011;61467;50.674;4.618;2024-02-14T12:10:46;6.18;;;2.72;;
72649;SDS011;61467;50.674;4.618;2024-02-14T12:13:15;8.50;;;2.90;;
72649;SDS011;61467;50.674;4.618;2024-02-14T12:15:44;6.67;;;2.40;;
72649;SDS011;61467;50.674;4.618;2024-02-14T12:18:11;6.45;;;2.72;;
72649;SDS011;61467;50.674;4.618;2024-02-14T12:20:39;8.00;;;3.03;;
72649;SDS011;61467;50.674;4.618;2024-02-14T12:23:07;7.60;;;3.47;;
72649;SDS011;61467;50.674;4.618;2024-02-14T12:25:39;9.82;;;3.78;;
72649;SDS011;61467;50.674;4.618;2024-02-14T12:28:12;10.27;;;3.30;;
72649;SDS011;61467;50.674;4.618;2024-02-14T12:30:43;10.52;;;3.60;;
72649;SDS011;61467;50.674;4.618;2024-02-14T12:33:11;8.75;;;3.60;;
72649;SDS011;61467;50.674;4.618;2024-02-14T12:35:41;9.88;;;3.60;;
72649;SDS011;61467;50.674;4.618;2024-02-14T12:38:10;9.40;;;4.00;;
72649;SDS011;61467;50.674;4.618;2024-02-14T12:40:38;9.00;;;3.90;;
72649;SDS011;61467;50.674;4.618;2024-02-14T12:43:06;9.40;;;3.65;;
72649;SDS011;61467;50.674;4.618;2024-02-14T12:45:35;8.77;;;3.70;;
72649;SDS011;61467;50.674;4.618;2024-02-14T12:48:01;7.30;;;3.40;;
72649;SDS011;61467;50.674;4.618;2024-02-14T12:50:29;10.53;;;3.73;;
72649;SDS011;61467;50.674;4.618;2024-02-14T12:52:56;9.60;;;3.30;;
72649;SDS011;61467;50.674;4.618;2024-02-14T12:55:26;8.38;;;3.40;;
72649;SDS011;61467;50.674;4.618;2024-02-14T12:57:54;9.82;;;4.22;;
72649;SDS011;61467;50.674;4.618;2024-02-14T13:00:21;8.68;;;3.95;;
72649;SDS011;61467;50.674;4.618;2024-02-14T13:02:48;8.37;;;3.67;;
72649;SDS011;61467;50.674;4.618;2024-02-14T13:05:14;10.30;;;3.75;;
72649;SDS011;61467;50.674;4.618;2024-02-14T13:07:41;9.32;;;4.05;;
72649;SDS011;61467;50.674;4.618;2024-02-14T13:10:09;10.27;;;4.07;;
72649;SDS011;61467;50.674;4.618;2024-02-14T13:12:38;8.55;;;4.30;;
72649;SDS011;61467;50.674;4.618;2024-02-14T13:15:05;9.23;;;4.40;;
72649;SDS011;61467;50.674;4.618;2024-02-14T13:17:32;9.80;;;4.22;;
72649;SDS011;61467;50.674;4.618;2024-02-14T13:19:59;9.77;;;4.25;;
72649;SDS011;61467;50.674;4.618;2024-02-14T13:22:26;10.18;;;4.07;;
72649;SDS011;61467;50.674;4.618;2024-02-14T13:24:53;9.73;;;4.03;;
72649;SDS011;61467;50.674;4.618;2024-02-14T13:27:21;9.40;;;4.57;;
72649;SDS011;61467;50.674;4.618;2024-02-14T13:29:49;10.63;;;4.22;;
72649;SDS011;61467;50.674;4.618;2024-02-14T13:32:16;7.90;;;3.88;;
72649;SDS011;61467;50.674;4.618;2024-02-14T13:34:43;10.77;;;3.92;;
72649;SDS011;61467;50.674;4.618;2024-02-14T13:37:10;10.77;;;4.00;;
72649;SDS011;61467;50.674;4.618;2024-02-14T13:39:36;8.30;;;3.37;;
72649;SDS011;61467;50.674;4.618;2024-02-14T13:42:04;8.65;;;3.97;;
72649;SDS011;61467;50.674;4.618;2024-02-14T13:44:33;13.65;;;4.63;;
72649;SDS011;61467;50.674;4.618;2024-02-14T13:47:01;9.93;;;4.40;;
72649;SDS011;61467;50.674;4.618;2024-02-14T13:49:28;8.93;;;3.72;;
72649;SDS011;61467;50.674;4.618;2024-02-14T13:51:56;9.17;;;3.80;;
72649;SDS011;61467;50.674;4.618;2024-02-14T13:54:24;8.70;;;3.80;;
72649;SDS011;61467;50.674;4.618;2024-02-14T13:56:51;10.48;;;3.60;;
72649;SDS011;61467;50.674;4.618;2024-02-14T13:59:18;9.00;;;4.00;;
72649;SDS011;61467;50.674;4.618;2024-02-14T14:01:45;8.15;;;3.88;;
72649;SDS011;61467;50.674;4.618;2024-02-14T14:04:14;9.80;;;3.90;;
72649;SDS011;61467;50.674;4.618;2024-02-14T14:06:41;9.15;;;4.13;;
72649;SDS011;61467;50.674;4.618;2024-02-14T14:09:08;9.35;;;3.80;;
72649;SDS011;61467;50.674;4.618;2024-02-14T14:11:35;9.50;;;3.92;;
72649;SDS011;61467;50.674;4.618;2024-02-14T14:14:02;8.98;;;3.90;;
72649;SDS011;61467;50.674;4.618;2024-02-14T14:16:29;7.80;;;3.37;;
72649;SDS011;61467;50.674;4.618;2024-02-14T14:18:58;7.50;;;3.22;;
72649;SDS011;61467;50.674;4.618;2024-02-14T14:21:26;8.35;;;3.35;;
72649;SDS011;61467;50.674;4.618;2024-02-14T14:23:53;7.47;;;3.10;;
72649;SDS011;61467;50.674;4.618;2024-02-14T14:26:20;8.63;;;3.50;;
72649;SDS011;61467;50.674;4.618;2024-02-14T14:28:47;7.30;;;3.17;;
72649;SDS011;61467;50.674;4.618;2024-02-14T14:31:14;7.10;;;3.17;;
72649;SDS011;61467;50.674;4.618;2024-02-14T14:33:41;10.20;;;3.58;;
72649;SDS011;61467;50.674;4.618;2024-02-14T14:36:08;8.10;;;3.20;;
72649;SDS011;61467;50.674;4.618;2024-02-14T14:38:37;7.25;;;3.08;;
72649;SDS011;61467;50.674;4.618;2024-02-14T14:41:06;8.07;;;2.80;;
72649;SDS011;61467;50.674;4.618;2024-02-14T14:43:33;7.57;;;2.97;;
72649;SDS011;61467;50.674;4.618;2024-02-14T14:46:00;7.28;;;2.97;;